Time;durP1;ratioP1;P1;durP2;ratioP2;P2;SDS_P1;SDS_P2;PMS_P1;PMS_P2;Temp;Humidity;BMP_temperature;BMP_pressure;BME280_temperature;BME280_humidity;BME280_pressure;Samples;Min_cycle;Max_cycle;Signal;HPM_P1;HPM_P2
2023/07/19 00:01:24;;;;;;;5.28;2.92;;;;;;;;;;5017530;28;20042;-76
2023/07/19 00:03:52;;;;;;;4.57;2.35;;;;;;;;;;5005005;28;20044;-78
2023/07/19 00:09:22;;;;;;;7.85;2.95;;;;;;;;;;5087680;23;20048;-76
2023/07/19 00:11:48;;;;;;;8.73;3.20;;;;;;;;;;5041442;28;20032;-77
2023/07/19 00:14:16;;;;;;;9.65;2.92;;;;;;;;;;5189601;22;20042;-77
2023/07/19 00:16:42;;;;;;;7.97;3.45;;;;;;;;;;5038222;28;20120;-77
2023/07/19 00:19:08;;;;;;;10.40;3.20;;;;;;;;;;5023660;28;20361;-77
2023/07/19 00:21:34;;;;;;;5.35;2.88;;;;;;;;;;5038618;28;20041;-78
2023/07/19 00:24:00;;;;;;;11.23;3.08;;;;;;;;;;5039222;28;20026;-78
2023/07/19 00:26:26;;;;;;;9.05;2.85;;;;;;;;;;5021631;28;20539;-76
2023/07/19 00:28:52;;;;;;;8.98;4.10;;;;;;;;;;5017605;28;20063;-76
2023/07/19 00:31:18;;;;;;;8.27;3.40;;;;;;;;;;5022309;28;20033;-78
2023/07/19 00:33:44;;;;;;;7.18;3.42;;;;;;;;;;5037442;28;20798;-75
2023/07/19 00:36:11;;;;;;;6.97;2.75;;;;;;;;;;5022013;28;20044;-77
2023/07/19 00:38:38;;;;;;;6.70;2.92;;;;;;;;;;5021954;28;20552;-77
2023/07/19 00:41:04;;;;;;;8.63;2.85;;;;;;;;;;5021462;28;20048;-77
2023/07/19 00:43:30;;;;;;;10.45;3.05;;;;;;;;;;5022138;28;20037;-76
2023/07/19 00:49:02;;;;;;;5.85;2.80;;;;;;;;;;5183747;22;20919;-75
2023/07/19 00:51:31;;;;;;;9.43;3.70;;;;;;;;;;5045018;28;20120;-77
2023/07/19 00:53:58;;;;;;;11.05;3.17;;;;;;;;;;5028515;28;20063;-77
2023/07/19 00:56:24;;;;;;;8.27;2.75;;;;;;;;;;5028592;28;20129;-75
2023/07/19 00:58:50;;;;;;;6.60;2.75;;;;;;;;;;5029337;28;20037;-77
2023/07/19 01:01:16;;;;;;;4.65;2.25;;;;;;;;;;5014797;28;20107;-78
2023/07/19 01:03:42;;;;;;;5.05;3.00;;;;;;;;;;5027997;28;20854;-77
2023/07/19 01:06:08;;;;;;;5.15;2.63;;;;;;;;;;5029434;28;20039;-78
2023/07/19 01:08:35;;;;;;;7.18;3.15;;;;;;;;;;5028978;28;20039;-78
2023/07/19 01:11:01;;;;;;;6.85;2.78;;;;;;;;;;5027728;28;20060;-76
2023/07/19 01:13:30;;;;;;;9.65;2.55;;;;;;;;;;5028490;28;20036;-76
2023/07/19 01:15:56;;;;;;;7.03;2.80;;;;;;;;;;5044779;28;20034;-75
2023/07/19 01:18:22;;;;;;;11.93;3.05;;;;;;;;;;5027973;28;20057;-76
2023/07/19 01:20:48;;;;;;;5.90;2.92;;;;;;;;;;5015107;28;20048;-77
2023/07/19 01:23:14;;;;;;;13.95;3.08;;;;;;;;;;5028109;28;20040;-77
2023/07/19 01:25:40;;;;;;;9.35;3.15;;;;;;;;;;5014882;28;20140;-76
2023/07/19 01:28:06;;;;;;;5.60;2.65;;;;;;;;;;5015860;28;20505;-78
2023/07/19 01:30:35;;;;;;;8.80;2.67;;;;;;;;;;5029314;28;20029;-78
2023/07/19 01:33:01;;;;;;;7.70;2.20;;;;;;;;;;5015102;28;20072;-76
2023/07/19 01:35:27;;;;;;;5.63;2.65;;;;;;;;;;5027293;28;20238;-77
2023/07/19 01:37:55;;;;;;;4.82;2.70;;;;;;;;;;5027567;28;20429;-77
2023/07/19 01:40:21;;;;;;;7.60;3.05;;;;;;;;;;5026774;28;20646;-77
2023/07/19 01:42:47;;;;;;;5.68;2.65;;;;;;;;;;5028980;28;20060;-77
2023/07/19 01:45:13;;;;;;;6.57;2.90;;;;;;;;;;5027327;28;20034;-77
2023/07/19 01:47:39;;;;;;;7.95;2.53;;;;;;;;;;5028838;28;20442;-76
2023/07/19 01:50:06;;;;;;;8.15;2.60;;;;;;;;;;5015543;28;20044;-77
2023/07/19 01:52:32;;;;;;;9.05;2.30;;;;;;;;;;5016724;28;20041;-77
2023/07/19 01:54:58;;;;;;;5.90;2.83;;;;;;;;;;5028102;28;20043;-74
2023/07/19 01:57:26;;;;;;;4.82;3.00;;;;;;;;;;5028908;28;20041;-77
2023/07/19 01:59:52;;;;;;;6.28;2.33;;;;;;;;;;5015632;28;20125;-76
2023/07/19 02:02:18;;;;;;;7.22;3.03;;;;;;;;;;5029861;28;20064;-76
2023/07/19 02:04:44;;;;;;;7.00;2.83;;;;;;;;;;5031138;28;20033;-76
2023/07/19 02:07:15;;;;;;;6.10;2.83;;;;;;;;;;5027549;28;20123;-78
2023/07/19 02:09:43;;;;;;;4.90;2.28;;;;;;;;;;5028293;28;20034;-78
2023/07/19 02:12:09;;;;;;;7.30;2.20;;;;;;;;;;5027383;28;20030;-77
2023/07/19 02:14:36;;;;;;;14.40;3.50;;;;;;;;;;5043477;28;20041;-76
2023/07/19 02:17:02;;;;;;;7.72;2.65;;;;;;;;;;5028707;28;21679;-77
2023/07/19 02:19:28;;;;;;;12.02;3.22;;;;;;;;;;5013960;28;20036;-78
2023/07/19 02:21:54;;;;;;;6.50;2.53;;;;;;;;;;5032708;28;20035;-77
2023/07/19 02:24:20;;;;;;;10.73;2.97;;;;;;;;;;5043367;28;20037;-77
2023/07/19 02:26:46;;;;;;;10.88;3.40;;;;;;;;;;5027979;28;20021;-75
2023/07/19 02:29:12;;;;;;;7.22;3.03;;;;;;;;;;5027922;28;20457;-77
2023/07/19 02:31:38;;;;;;;6.68;2.45;;;;;;;;;;5026120;28;20033;-78
2023/07/19 02:34:06;;;;;;;5.57;2.90;;;;;;;;;;5026991;28;20046;-76
2023/07/19 02:36:34;;;;;;;6.65;2.65;;;;;;;;;;5025835;28;20030;-78
2023/07/19 02:39:00;;;;;;;4.50;2.60;;;;;;;;;;5028545;28;20041;-77
2023/07/19 02:41:26;;;;;;;11.60;2.10;;;;;;;;;;5026871;28;20029;-77
2023/07/19 02:43:52;;;;;;;7.25;3.15;;;;;;;;;;5019879;28;20907;-77
2023/07/19 02:46:18;;;;;;;6.78;3.58;;;;;;;;;;5020231;28;20091;-77
2023/07/19 02:48:43;;;;;;;8.80;2.67;;;;;;;;;;5022340;28;20037;-77
2023/07/19 02:51:09;;;;;;;7.97;2.65;;;;;;;;;;5033783;28;20679;-77
2023/07/19 02:53:36;;;;;;;7.35;2.65;;;;;;;;;;5017600;28;20041;-76
2023/07/19 02:56:02;;;;;;;7.00;2.50;;;;;;;;;;5017853;28;20042;-75
2023/07/19 02:58:28;;;;;;;8.57;2.75;;;;;;;;;;5018066;28;20039;-78
2023/07/19 03:00:56;;;;;;;8.43;3.20;;;;;;;;;;5017563;28;20030;-76
2023/07/19 03:03:22;;;;;;;6.57;2.85;;;;;;;;;;5018301;28;20041;-77
2023/07/19 03:05:49;;;;;;;6.25;2.67;;;;;;;;;;5018197;28;20071;-78
2023/07/19 03:08:15;;;;;;;6.45;3.13;;;;;;;;;;5019587;28;20359;-76
2023/07/19 03:10:41;;;;;;;6.25;2.95;;;;;;;;;;5016390;28;20033;-76
2023/07/19 03:13:07;;;;;;;6.43;3.13;;;;;;;;;;5018682;28;20026;-76
2023/07/19 03:15:33;;;;;;;11.15;3.22;;;;;;;;;;5024931;28;20048;-76
2023/07/19 03:18:03;;;;;;;7.35;2.60;;;;;;;;;;5030304;28;20037;-76
2023/07/19 03:20:30;;;;;;;5.63;3.13;;;;;;;;;;5046596;28;20049;-76
2023/07/19 03:22:56;;;;;;;7.55;3.20;;;;;;;;;;5030078;28;20037;-77
2023/07/19 03:25:31;;;;;;;7.28;2.38;;;;;;;;;;5029281;28;20123;-77
2023/07/19 03:27:57;;;;;;;5.43;2.67;;;;;;;;;;5030522;28;20454;-76
2023/07/19 03:30:23;;;;;;;7.45;3.22;;;;;;;;;;5030059;28;20049;-78
2023/07/19 03:32:49;;;;;;;7.07;3.10;;;;;;;;;;5028446;28;20491;-78
2023/07/19 03:35:15;;;;;;;12.10;3.45;;;;;;;;;;5028973;28;20041;-75
2023/07/19 03:37:44;;;;;;;5.93;2.92;;;;;;;;;;5046101;28;20703;-77
2023/07/19 03:40:13;;;;;;;7.20;2.67;;;;;;;;;;5029687;28;20740;-75
2023/07/19 03:42:39;;;;;;;8.75;3.35;;;;;;;;;;5046782;28;20057;-78
2023/07/19 03:45:06;;;;;;;8.02;3.28;;;;;;;;;;5031082;28;20627;-77
2023/07/19 03:47:34;;;;;;;10.43;3.45;;;;;;;;;;5030202;28;20894;-77
2023/07/19 03:50:01;;;;;;;9.25;2.95;;;;;;;;;;5017323;28;20048;-76
2023/07/19 03:52:29;;;;;;;6.35;2.90;;;;;;;;;;5016202;28;20522;-76
2023/07/19 03:54:56;;;;;;;5.95;2.90;;;;;;;;;;5030746;28;20037;-76
2023/07/19 03:57:22;;;;;;;5.13;2.65;;;;;;;;;;5028907;28;20060;-76
2023/07/19 03:59:48;;;;;;;6.20;2.80;;;;;;;;;;5029395;28;20041;-77
2023/07/19 04:02:14;;;;;;;9.05;3.00;;;;;;;;;;5029607;28;20029;-76
2023/07/19 04:04:40;;;;;;;10.43;3.38;;;;;;;;;;5028506;28;20830;-75
2023/07/19 04:07:06;;;;;;;10.15;3.75;;;;;;;;;;5029279;28;20063;-77
2023/07/19 04:09:32;;;;;;;7.30;2.72;;;;;;;;;;5029558;28;20032;-76
2023/07/19 04:11:58;;;;;;;8.10;3.15;;;;;;;;;;5029561;28;20555;-75
2023/07/19 04:14:27;;;;;;;11.77;3.63;;;;;;;;;;5029822;28;20025;-77
2023/07/19 04:16:53;;;;;;;9.80;3.25;;;;;;;;;;5028828;28;20037;-75
2023/07/19 04:19:19;;;;;;;6.53;3.55;;;;;;;;;;5031755;28;20032;-77
2023/07/19 04:21:45;;;;;;;10.98;3.10;;;;;;;;;;5017454;28;20070;-76
2023/07/19 04:24:13;;;;;;;6.50;2.95;;;;;;;;;;5029627;28;20369;-77
2023/07/19 04:26:39;;;;;;;7.95;3.17;;;;;;;;;;5032189;28;20037;-77
2023/07/19 04:29:05;;;;;;;10.45;3.70;;;;;;;;;;5016361;28;20045;-77
2023/07/19 04:31:31;;;;;;;6.55;3.50;;;;;;;;;;5029821;28;20044;-77
2023/07/19 04:33:57;;;;;;;8.18;3.20;;;;;;;;;;5029185;28;20354;-77
2023/07/19 04:36:23;;;;;;;9.52;3.22;;;;;;;;;;5015877;28;20038;-75
2023/07/19 04:38:49;;;;;;;10.57;3.40;;;;;;;;;;5030336;28;20044;-76
2023/07/19 04:41:15;;;;;;;5.75;2.92;;;;;;;;;;5027875;28;20048;-76
2023/07/19 04:43:41;;;;;;;10.88;3.30;;;;;;;;;;5032423;28;20044;-76
2023/07/19 04:46:07;;;;;;;9.75;3.38;;;;;;;;;;5029412;28;20025;-77
2023/07/19 04:48:34;;;;;;;7.38;2.65;;;;;;;;;;5027775;28;20048;-77
2023/07/19 04:51:02;;;;;;;8.38;3.58;;;;;;;;;;5028785;28;20366;-77
2023/07/19 04:53:28;;;;;;;4.00;2.75;;;;;;;;;;5027816;28;20477;-76
2023/07/19 04:55:54;;;;;;;5.50;3.10;;;;;;;;;;5029327;28;20041;-75
2023/07/19 04:58:20;;;;;;;6.22;2.70;;;;;;;;;;5028155;28;20041;-77
2023/07/19 05:00:46;;;;;;;7.63;3.33;;;;;;;;;;5015606;28;20102;-75
2023/07/19 05:03:12;;;;;;;6.57;2.88;;;;;;;;;;5028846;28;20041;-77
2023/07/19 05:05:41;;;;;;;8.18;3.03;;;;;;;;;;5027525;28;20087;-78
2023/07/19 05:08:07;;;;;;;7.28;3.25;;;;;;;;;;5029114;28;20030;-77
2023/07/19 05:10:37;;;;;;;6.88;3.58;;;;;;;;;;5026914;28;20033;-75
2023/07/19 05:13:04;;;;;;;6.50;3.33;;;;;;;;;;5027942;28;20112;-78
2023/07/19 05:15:30;;;;;;;7.95;3.10;;;;;;;;;;5029549;28;20041;-76
2023/07/19 05:17:56;;;;;;;10.23;3.35;;;;;;;;;;5028957;28;20029;-76
2023/07/19 05:20:26;;;;;;;7.43;3.30;;;;;;;;;;5028111;28;20545;-75
2023/07/19 05:22:54;;;;;;;5.85;3.17;;;;;;;;;;5028933;28;20191;-78
2023/07/19 05:25:23;;;;;;;10.05;2.90;;;;;;;;;;5015557;28;20029;-75
2023/07/19 05:27:49;;;;;;;8.32;3.67;;;;;;;;;;5042712;28;20060;-76
2023/07/19 05:30:15;;;;;;;9.02;3.17;;;;;;;;;;5027684;28;20195;-76
2023/07/19 05:32:41;;;;;;;7.43;3.35;;;;;;;;;;5027910;28;20059;-76
2023/07/19 05:35:07;;;;;;;8.85;4.13;;;;;;;;;;5026899;28;20259;-77
2023/07/19 05:37:33;;;;;;;11.10;3.45;;;;;;;;;;5028859;28;20044;-77
2023/07/19 05:39:59;;;;;;;9.85;3.70;;;;;;;;;;5028408;28;20037;-77
2023/07/19 05:42:25;;;;;;;7.32;3.10;;;;;;;;;;5043701;28;20163;-76
2023/07/19 05:44:51;;;;;;;11.75;4.10;;;;;;;;;;5027615;28;20033;-76
2023/07/19 05:47:17;;;;;;;7.75;3.65;;;;;;;;;;5026584;28;20409;-77
2023/07/19 05:49:46;;;;;;;11.18;3.63;;;;;;;;;;5042653;28;20115;-78
2023/07/19 05:52:16;;;;;;;8.27;3.08;;;;;;;;;;5025758;28;20033;-76
2023/07/19 05:54:42;;;;;;;8.30;3.70;;;;;;;;;;5043344;28;20422;-76
2023/07/19 05:57:08;;;;;;;9.48;3.38;;;;;;;;;;5026928;28;20034;-76
2023/07/19 05:59:34;;;;;;;13.88;3.67;;;;;;;;;;5014237;28;20020;-78
2023/07/19 06:02:05;;;;;;;7.57;3.42;;;;;;;;;;5026649;28;20033;-78
2023/07/19 06:04:34;;;;;;;9.07;3.83;;;;;;;;;;5027576;28;20047;-75
2023/07/19 06:06:59;;;;;;;10.32;3.40;;;;;;;;;;5026608;28;20068;-77
2023/07/19 06:09:28;;;;;;;9.93;3.63;;;;;;;;;;5027351;28;20049;-79
2023/07/19 06:11:56;;;;;;;10.90;3.25;;;;;;;;;;5027465;28;20116;-78
2023/07/19 06:14:23;;;;;;;13.55;3.83;;;;;;;;;;5026943;28;20361;-76
2023/07/19 06:16:49;;;;;;;9.80;4.13;;;;;;;;;;5027881;28;20032;-78
2023/07/19 06:19:19;;;;;;;11.90;3.50;;;;;;;;;;5026319;28;20104;-78
2023/07/19 06:21:45;;;;;;;8.57;3.97;;;;;;;;;;5028291;28;20037;-79
2023/07/19 06:24:11;;;;;;;12.90;3.83;;;;;;;;;;5030879;28;20037;-79
2023/07/19 06:26:37;;;;;;;11.65;3.70;;;;;;;;;;5031297;28;20037;-77
2023/07/19 06:29:05;;;;;;;8.65;2.72;;;;;;;;;;5046951;28;20040;-77
2023/07/19 06:31:31;;;;;;;10.27;2.95;;;;;;;;;;5030362;28;20039;-77
2023/07/19 06:33:57;;;;;;;7.40;2.92;;;;;;;;;;5044963;28;20045;-77
2023/07/19 06:36:24;;;;;;;7.53;3.25;;;;;;;;;;5030426;28;20029;-76
2023/07/19 06:38:50;;;;;;;10.57;3.25;;;;;;;;;;5033346;28;20037;-76
2023/07/19 06:41:18;;;;;;;9.88;3.22;;;;;;;;;;5047565;28;20173;-77
2023/07/19 06:43:44;;;;;;;8.60;3.33;;;;;;;;;;5018675;28;20388;-76
2023/07/19 06:46:10;;;;;;;9.45;3.00;;;;;;;;;;5020784;28;20045;-77
2023/07/19 06:48:36;;;;;;;7.13;3.05;;;;;;;;;;5031873;28;20047;-76
2023/07/19 06:51:02;;;;;;;5.82;2.75;;;;;;;;;;5031016;28;20106;-75
2023/07/19 06:53:28;;;;;;;8.82;3.10;;;;;;;;;;5018059;28;20162;-77
2023/07/19 06:55:58;;;;;;;7.00;3.28;;;;;;;;;;5033584;28;20049;-78
2023/07/19 06:58:26;;;;;;;7.05;3.05;;;;;;;;;;5031372;28;20044;-73
2023/07/19 07:00:56;;;;;;;14.73;3.40;;;;;;;;;;5048440;28;20061;-77
2023/07/19 07:03:22;;;;;;;10.15;3.88;;;;;;;;;;5032439;28;20036;-77
2023/07/19 07:05:48;;;;;;;8.18;3.28;;;;;;;;;;5030894;28;20116;-74
2023/07/19 07:08:15;;;;;;;9.73;3.10;;;;;;;;;;5047171;28;20029;-77
2023/07/19 07:10:44;;;;;;;5.80;3.17;;;;;;;;;;5029177;28;20026;-76
2023/07/19 07:13:10;;;;;;;5.88;2.92;;;;;;;;;;5030786;28;20449;-76
2023/07/19 07:15:39;;;;;;;8.18;2.95;;;;;;;;;;5016479;28;20120;-76
2023/07/19 07:18:05;;;;;;;10.18;3.35;;;;;;;;;;5031111;28;20166;-80
2023/07/19 07:20:30;;;;;;;7.13;2.75;;;;;;;;;;5029968;28;20041;-77
2023/07/19 07:22:56;;;;;;;8.63;2.78;;;;;;;;;;5018029;28;21732;-81
2023/07/19 07:25:22;;;;;;;4.93;2.53;;;;;;;;;;5030322;28;20068;-77
2023/07/19 07:27:51;;;;;;;12.20;3.35;;;;;;;;;;5030572;28;20404;-76
2023/07/19 07:30:17;;;;;;;7.80;2.83;;;;;;;;;;5030696;28;20108;-78
2023/07/19 07:32:44;;;;;;;11.43;3.03;;;;;;;;;;5031953;28;20037;-77
2023/07/19 07:35:10;;;;;;;10.70;2.88;;;;;;;;;;5028115;28;20040;-77
2023/07/19 07:37:39;;;;;;;11.75;3.45;;;;;;;;;;5030235;28;20041;-77
2023/07/19 07:40:08;;;;;;;9.68;3.17;;;;;;;;;;5029181;28;20087;-77
2023/07/19 07:42:34;;;;;;;9.23;3.65;;;;;;;;;;5029559;28;20075;-76
2023/07/19 07:45:00;;;;;;;11.98;3.38;;;;;;;;;;5015998;28;20120;-77
2023/07/19 07:47:26;;;;;;;12.25;3.45;;;;;;;;;;5016321;28;20164;-75
2023/07/19 07:49:52;;;;;;;10.63;3.78;;;;;;;;;;5028817;28;20037;-76
2023/07/19 07:52:20;;;;;;;8.25;3.88;;;;;;;;;;5029514;28;20029;-76
2023/07/19 07:54:46;;;;;;;7.68;3.72;;;;;;;;;;5028534;28;20029;-78
2023/07/19 07:57:12;;;;;;;8.32;3.60;;;;;;;;;;5028827;28;20029;-77
2023/07/19 07:59:41;;;;;;;6.38;3.33;;;;;;;;;;5030579;28;20528;-77
2023/07/19 08:02:07;;;;;;;8.95;3.08;;;;;;;;;;5029468;28;20037;-78
2023/07/19 08:04:35;;;;;;;8.32;3.38;;;;;;;;;;5029729;28;20039;-78
2023/07/19 08:07:01;;;;;;;11.48;4.30;;;;;;;;;;5029250;28;20033;-80
2023/07/19 08:09:27;;;;;;;8.20;3.20;;;;;;;;;;5030180;28;20036;-81
2023/07/19 08:11:53;;;;;;;11.77;3.95;;;;;;;;;;5015613;28;20068;-78
2023/07/19 08:14:22;;;;;;;11.45;3.58;;;;;;;;;;5043983;28;20800;-79
2023/07/19 08:16:50;;;;;;;6.93;2.70;;;;;;;;;;5028968;28;20548;-78
2023/07/19 08:19:19;;;;;;;9.85;2.88;;;;;;;;;;5028448;28;20026;-79
2023/07/19 08:21:45;;;;;;;5.47;2.50;;;;;;;;;;5029275;28;20040;-77
2023/07/19 08:24:13;;;;;;;10.35;3.00;;;;;;;;;;5030351;28;20041;-78
2023/07/19 08:26:40;;;;;;;7.75;2.33;;;;;;;;;;5029971;28;20064;-77
2023/07/19 08:29:06;;;;;;;5.88;2.95;;;;;;;;;;5028408;28;20033;-76
2023/07/19 08:31:35;;;;;;;5.15;2.38;;;;;;;;;;5029506;28;20025;-76
2023/07/19 08:34:00;;;;;;;9.40;2.92;;;;;;;;;;5028242;28;20041;-80
2023/07/19 08:36:27;;;;;;;12.32;2.50;;;;;;;;;;5015099;28;20041;-80
2023/07/19 08:38:53;;;;;;;8.57;2.70;;;;;;;;;;5028576;28;20034;-80
2023/07/19 08:41:21;;;;;;;9.35;3.35;;;;;;;;;;5028528;28;20072;-79
2023/07/19 08:43:47;;;;;;;8.18;3.15;;;;;;;;;;5013325;28;20041;-79
2023/07/19 08:46:16;;;;;;;5.03;2.47;;;;;;;;;;5015460;28;20622;-77
2023/07/19 08:48:47;;;;;;;12.48;3.60;;;;;;;;;;5015059;28;20742;-82
2023/07/19 08:51:15;;;;;;;9.93;2.33;;;;;;;;;;5015567;28;20038;-76
2023/07/19 08:53:41;;;;;;;10.15;2.92;;;;;;;;;;5015353;28;20869;-77
2023/07/19 08:56:07;;;;;;;23.85;4.32;;;;;;;;;;5015414;28;20037;-77
2023/07/19 08:58:39;;;;;;;12.63;3.08;;;;;;;;;;5017412;28;20037;-81
2023/07/19 09:01:05;;;;;;;12.00;2.97;;;;;;;;;;5015291;28;20440;-77
2023/07/19 09:03:31;;;;;;;6.15;2.33;;;;;;;;;;5020042;28;20047;-78
2023/07/19 09:05:57;;;;;;;6.55;2.67;;;;;;;;;;5014847;28;20030;-77
2023/07/19 09:08:37;;;;;;;11.55;2.75;;;;;;;;;;5014212;28;20094;-77
2023/07/19 09:11:05;;;;;;;18.10;3.25;;;;;;;;;;5015653;28;20048;-76
2023/07/19 09:13:36;;;;;;;5.82;2.40;;;;;;;;;;5032320;28;20048;-79
2023/07/19 09:16:05;;;;;;;8.57;3.00;;;;;;;;;;5014149;28;20045;-79
2023/07/19 09:18:37;;;;;;;10.57;3.25;;;;;;;;;;5018691;28;21639;-79
2023/07/19 09:21:06;;;;;;;5.75;2.50;;;;;;;;;;5017993;28;20030;-78
2023/07/19 09:23:36;;;;;;;11.07;3.08;;;;;;;;;;5022859;28;20584;-77
2023/07/19 09:26:03;;;;;;;9.35;3.47;;;;;;;;;;5028765;28;20039;-77
2023/07/19 09:28:35;;;;;;;10.40;3.72;;;;;;;;;;5028219;28;20481;-76
2023/07/19 09:31:03;;;;;;;8.63;4.22;;;;;;;;;;5027405;28;20116;-76
2023/07/19 09:33:29;;;;;;;7.72;3.63;;;;;;;;;;5028959;28;20068;-77
2023/07/19 09:35:55;;;;;;;8.20;2.97;;;;;;;;;;5013860;28;20041;-75
2023/07/19 09:38:24;;;;;;;10.75;3.90;;;;;;;;;;5028345;28;20418;-77
2023/07/19 09:40:55;;;;;;;7.90;3.40;;;;;;;;;;5042990;28;20042;-77
2023/07/19 09:43:21;;;;;;;7.97;3.97;;;;;;;;;;5027704;28;20045;-75
2023/07/19 09:45:48;;;;;;;10.05;4.43;;;;;;;;;;5027746;28;20128;-77
2023/07/19 09:48:17;;;;;;;11.75;4.18;;;;;;;;;;5026876;28;20128;-78
2023/07/19 09:50:44;;;;;;;16.23;3.63;;;;;;;;;;5012983;28;20025;-77
2023/07/19 09:53:13;;;;;;;11.07;3.78;;;;;;;;;;5014461;28;20132;-77
2023/07/19 09:55:40;;;;;;;7.55;2.70;;;;;;;;;;5027857;28;20033;-78
2023/07/19 09:58:08;;;;;;;11.32;3.20;;;;;;;;;;5029344;28;20081;-77
2023/07/19 10:00:34;;;;;;;8.68;2.78;;;;;;;;;;5029677;28;20030;-76
2023/07/19 10:03:00;;;;;;;11.57;2.45;;;;;;;;;;5018850;28;21646;-77
2023/07/19 10:05:29;;;;;;;7.72;2.60;;;;;;;;;;5030680;28;20032;-77
2023/07/19 10:08:03;;;;;;;8.88;2.38;;;;;;;;;;5031252;28;20042;-77
2023/07/19 10:10:39;;;;;;;10.63;2.65;;;;;;;;;;5030799;28;20025;-75
2023/07/19 10:13:07;;;;;;;8.80;2.38;;;;;;;;;;5017363;28;20072;-77
2023/07/19 10:15:35;;;;;;;8.82;3.00;;;;;;;;;;5031512;28;20033;-78
2023/07/19 10:18:02;;;;;;;5.63;2.33;;;;;;;;;;5031105;28;20119;-78
2023/07/19 10:20:35;;;;;;;6.40;2.88;;;;;;;;;;5031931;28;20028;-75
2023/07/19 10:23:05;;;;;;;8.60;2.75;;;;;;;;;;5018846;28;20041;-79
2023/07/19 10:25:49;;;;;;;10.05;2.70;;;;;;;;;;5016933;28;21686;-77
2023/07/19 10:28:30;;;;;;;9.55;2.88;;;;;;;;;;5029495;28;20380;-78
2023/07/19 10:30:56;;;;;;;6.53;2.42;;;;;;;;;;5031809;28;20967;-77
2023/07/19 10:33:25;;;;;;;9.00;2.90;;;;;;;;;;5031454;28;20044;-79
2023/07/19 10:35:55;;;;;;;7.28;2.63;;;;;;;;;;5031765;28;20033;-76
2023/07/19 10:38:24;;;;;;;6.95;2.70;;;;;;;;;;5031651;28;20060;-75
2023/07/19 10:40:57;;;;;;;7.00;2.65;;;;;;;;;;5030078;28;20034;-78
2023/07/19 10:43:24;;;;;;;8.13;3.05;;;;;;;;;;5031101;28;20660;-78
2023/07/19 10:45:53;;;;;;;14.23;3.28;;;;;;;;;;5016757;28;20689;-79
2023/07/19 10:48:21;;;;;;;7.30;3.30;;;;;;;;;;5030302;28;20109;-78
2023/07/19 10:50:48;;;;;;;6.68;2.70;;;;;;;;;;5028805;28;20107;-77
2023/07/19 10:53:14;;;;;;;7.93;3.30;;;;;;;;;;5030118;28;20034;-79
2023/07/19 10:55:41;;;;;;;8.60;2.78;;;;;;;;;;5029207;28;20025;-77
2023/07/19 10:58:07;;;;;;;8.00;3.38;;;;;;;;;;5030236;28;20095;-75
2023/07/19 11:00:35;;;;;;;9.77;3.50;;;;;;;;;;5046763;28;20088;-76
2023/07/19 11:03:01;;;;;;;11.07;3.53;;;;;;;;;;5031697;28;20373;-75
2023/07/19 11:05:27;;;;;;;13.13;3.38;;;;;;;;;;5030473;28;20087;-80
2023/07/19 11:07:53;;;;;;;10.73;3.78;;;;;;;;;;5029207;28;20442;-76
2023/07/19 11:10:21;;;;;;;8.15;3.38;;;;;;;;;;5031850;28;20068;-77
2023/07/19 11:12:47;;;;;;;8.98;3.53;;;;;;;;;;5030652;28;20035;-78
2023/07/19 11:15:16;;;;;;;12.43;3.70;;;;;;;;;;5035227;28;20037;-76
2023/07/19 11:17:42;;;;;;;8.23;3.10;;;;;;;;;;5016426;28;20033;-77
2023/07/19 11:20:09;;;;;;;11.63;3.60;;;;;;;;;;5017576;28;20044;-78
2023/07/19 11:22:35;;;;;;;11.35;4.00;;;;;;;;;;5029739;28;20033;-76
2023/07/19 11:25:09;;;;;;;12.80;4.60;;;;;;;;;;5045735;28;20040;-78
2023/07/19 11:27:40;;;;;;;11.55;4.78;;;;;;;;;;5033360;28;20025;-75
2023/07/19 11:30:07;;;;;;;7.03;3.30;;;;;;;;;;5046886;28;20037;-79
2023/07/19 11:32:33;;;;;;;12.13;3.92;;;;;;;;;;5034260;28;20061;-79
2023/07/19 11:35:00;;;;;;;6.90;2.80;;;;;;;;;;5015788;28;20109;-76
2023/07/19 11:37:26;;;;;;;8.60;4.05;;;;;;;;;;5029128;28;20080;-75
2023/07/19 11:39:53;;;;;;;8.45;3.92;;;;;;;;;;5030804;28;20057;-78
2023/07/19 11:42:37;;;;;;;8.13;3.00;;;;;;;;;;5030031;28;20021;-78
2023/07/19 11:45:13;;;;;;;9.20;2.50;;;;;;;;;;5028920;28;20026;-78
2023/07/19 11:47:40;;;;;;;9.63;3.38;;;;;;;;;;5030440;28;20060;-77
2023/07/19 11:50:07;;;;;;;5.93;2.42;;;;;;;;;;5030115;28;20084;-77
2023/07/19 11:52:43;;;;;;;5.97;2.47;;;;;;;;;;5029635;28;20034;-76
2023/07/19 11:55:11;;;;;;;7.60;3.22;;;;;;;;;;5016335;28;20025;-76
2023/07/19 11:57:37;;;;;;;11.35;2.85;;;;;;;;;;5028289;28;20361;-78
2023/07/19 12:00:05;;;;;;;8.32;2.33;;;;;;;;;;5029174;28;20053;-77
2023/07/19 12:02:31;;;;;;;7.22;1.80;;;;;;;;;;5028554;28;20021;-78
2023/07/19 12:04:57;;;;;;;9.20;2.45;;;;;;;;;;5029171;28;20461;-78
2023/07/19 12:07:23;;;;;;;8.15;1.90;;;;;;;;;;5029212;28;20037;-77
2023/07/19 12:09:52;;;;;;;5.95;1.73;;;;;;;;;;5027887;28;20036;-77
2023/07/19 12:12:20;;;;;;;4.30;1.33;;;;;;;;;;5027680;28;20068;-76
2023/07/19 12:14:46;;;;;;;6.05;1.80;;;;;;;;;;5028885;28;20045;-76
2023/07/19 12:17:12;;;;;;;3.70;1.27;;;;;;;;;;5027206;28;20052;-76
2023/07/19 12:19:38;;;;;;;5.35;2.13;;;;;;;;;;5028024;28;20309;-81
2023/07/19 12:22:04;;;;;;;5.53;1.52;;;;;;;;;;5028618;28;20033;-78
2023/07/19 12:24:30;;;;;;;14.57;2.17;;;;;;;;;;5028114;28;20029;-78
2023/07/19 12:26:56;;;;;;;6.68;1.58;;;;;;;;;;5029163;28;20124;-78
2023/07/19 12:29:25;;;;;;;6.22;1.40;;;;;;;;;;5015577;28;20035;-77
2023/07/19 12:31:53;;;;;;;6.18;1.88;;;;;;;;;;5044807;28;20033;-78
2023/07/19 12:34:20;;;;;;;6.22;1.45;;;;;;;;;;5028464;28;20037;-77
2023/07/19 12:36:47;;;;;;;3.47;1.10;;;;;;;;;;5030138;28;20030;-77
2023/07/19 12:39:13;;;;;;;3.22;1.33;;;;;;;;;;5028493;28;20037;-78
2023/07/19 12:41:40;;;;;;;4.40;1.20;;;;;;;;;;5028410;28;20033;-80
2023/07/19 12:44:06;;;;;;;5.13;1.52;;;;;;;;;;5028124;28;20125;-78
2023/07/19 12:46:32;;;;;;;4.20;1.50;;;;;;;;;;5015574;28;20074;-77
2023/07/19 12:49:01;;;;;;;5.18;1.30;;;;;;;;;;5029488;28;20096;-78
2023/07/19 12:51:27;;;;;;;3.03;1.13;;;;;;;;;;5029719;28;20090;-75
2023/07/19 12:53:53;;;;;;;3.63;1.05;;;;;;;;;;5027782;28;20038;-77
2023/07/19 12:56:21;;;;;;;4.93;1.20;;;;;;;;;;5028638;28;20036;-77
2023/07/19 12:58:48;;;;;;;4.28;1.15;;;;;;;;;;5028267;28;20045;-78
2023/07/19 13:01:14;;;;;;;4.90;1.40;;;;;;;;;;5028338;28;20127;-80
2023/07/19 13:03:42;;;;;;;3.25;1.10;;;;;;;;;;5027516;28;20040;-77
2023/07/19 13:06:08;;;;;;;5.45;0.98;;;;;;;;;;5029100;28;20469;-77
2023/07/19 13:08:34;;;;;;;7.25;1.67;;;;;;;;;;5026920;28;20033;-79
2023/07/19 13:11:00;;;;;;;7.63;1.10;;;;;;;;;;5015387;28;20028;-77
2023/07/19 13:13:26;;;;;;;10.32;1.50;;;;;;;;;;5028893;28;20037;-77
2023/07/19 13:15:52;;;;;;;4.05;1.23;;;;;;;;;;5028905;28;20033;-80
2023/07/19 13:18:18;;;;;;;6.63;1.20;;;;;;;;;;5026694;28;20031;-77
2023/07/19 13:20:44;;;;;;;5.13;0.80;;;;;;;;;;5028795;28;20484;-77
2023/07/19 13:23:16;;;;;;;5.03;1.00;;;;;;;;;;5030639;28;20037;-80
2023/07/19 13:25:43;;;;;;;5.53;0.98;;;;;;;;;;5028493;28;20040;-77
2023/07/19 13:28:11;;;;;;;6.30;1.02;;;;;;;;;;5033944;28;20033;-82
2023/07/19 13:30:40;;;;;;;4.75;1.08;;;;;;;;;;5026025;28;20025;-77
2023/07/19 13:33:08;;;;;;;4.18;1.08;;;;;;;;;;5025916;28;20738;-79
2023/07/19 13:35:35;;;;;;;7.70;1.08;;;;;;;;;;5028271;28;20109;-76
2023/07/19 13:38:01;;;;;;;5.63;0.95;;;;;;;;;;5045802;28;20040;-76
2023/07/19 13:40:27;;;;;;;9.50;1.50;;;;;;;;;;5044011;28;20044;-79
2023/07/19 13:42:53;;;;;;;2.45;1.38;;;;;;;;;;5031791;28;20036;-79
2023/07/19 13:45:19;;;;;;;4.03;1.05;;;;;;;;;;5028171;28;20029;-77
2023/07/19 13:47:45;;;;;;;8.07;1.48;;;;;;;;;;5028039;28;22036;-78
2023/07/19 13:50:11;;;;;;;3.63;1.15;;;;;;;;;;5028184;28;20036;-77
2023/07/19 13:52:39;;;;;;;2.47;0.70;;;;;;;;;;5026810;28;20063;-78
2023/07/19 13:55:06;;;;;;;5.18;1.30;;;;;;;;;;5027756;28;20053;-78
2023/07/19 13:57:32;;;;;;;2.83;0.95;;;;;;;;;;5027947;28;20031;-76
2023/07/19 13:59:58;;;;;;;14.05;2.15;;;;;;;;;;5027916;28;20039;-79
2023/07/19 14:02:29;;;;;;;8.52;1.20;;;;;;;;;;5027181;28;20028;-78
2023/07/19 14:04:58;;;;;;;4.22;1.10;;;;;;;;;;5026753;28;20064;-77
2023/07/19 14:07:24;;;;;;;3.35;1.05;;;;;;;;;;5013397;28;20037;-78
2023/07/19 14:09:52;;;;;;;5.95;1.17;;;;;;;;;;5026747;28;20120;-76
2023/07/19 14:12:18;;;;;;;2.85;1.00;;;;;;;;;;5027795;28;20025;-79
2023/07/19 14:14:44;;;;;;;5.50;0.98;;;;;;;;;;5027779;28;20049;-76
2023/07/19 14:17:13;;;;;;;5.47;1.00;;;;;;;;;;5027987;28;20037;-79
2023/07/19 14:19:39;;;;;;;6.03;0.90;;;;;;;;;;5027193;28;20030;-78
2023/07/19 14:22:05;;;;;;;3.92;0.98;;;;;;;;;;5042944;28;20033;-80
2023/07/19 14:24:31;;;;;;;4.47;0.85;;;;;;;;;;5024882;28;20565;-79
2023/07/19 14:26:57;;;;;;;4.50;0.80;;;;;;;;;;5027519;28;20038;-78
2023/07/19 14:29:23;;;;;;;5.68;0.93;;;;;;;;;;5026451;28;20633;-78
2023/07/19 14:31:49;;;;;;;5.47;1.33;;;;;;;;;;5013788;28;20033;-76
2023/07/19 14:34:15;;;;;;;3.47;0.77;;;;;;;;;;5026978;28;20040;-76
2023/07/19 14:36:41;;;;;;;4.82;1.08;;;;;;;;;;5027323;28;20572;-78
2023/07/19 14:39:07;;;;;;;1.63;1.00;;;;;;;;;;5026803;28;20033;-76
2023/07/19 14:41:33;;;;;;;2.78;0.82;;;;;;;;;;5013162;28;20771;-77
2023/07/19 14:43:59;;;;;;;4.90;1.00;;;;;;;;;;5015839;28;20080;-78
2023/07/19 14:46:25;;;;;;;3.25;1.00;;;;;;;;;;5016804;28;20105;-77